首页
METAR-TAF:

METAR-TAF

机场 :

巴東, 印度尼西亚

纬度: 00-47-12S, 经度: 100-16-50E, 海拔: 5米

当前天气观测

该预报发布于35分钟前的17:00 UTC
风速1节,风向
温度 25°C
湿度 100%
气压 1012 hPa
能见度10公里或以上
多云层高于1900英尺
小雨

METAR: WIEE 121700Z 01001KT 9999 -RA BKN019 25/25 Q1012

时间: 00:35 (17:35 UTC)

预报

该预报发布于35分钟前的17:00 UTC
预报有效从12日的 18点(UTC)到 13日的 18点(UTC)
风速3节,风向北转西北
能见度10公里或以上
散云层高于2000英尺
成为
从 12日的 19点(UTC)到 12日的 21点(UTC)
风速4节,风向北转东北
成为
从 13日的 00点(UTC)到 13日的 02点(UTC)
风速5节,风向西
少量云层高于2000英尺

TAF: WIEE 121700Z 1218/1318 34003KT 9999 SCT020 BECMG 1219/1221 02004KT BECMG 1300/1302 26005KT FEW020

超过4000个机场的气象观测和天气预报(METAR&TAF报告)。

可查询的气象台以黄色和红色小点在地图上表示。

将鼠标移到小点上方,可查看气象台名称。

然后点击查看天气观测和预报。

如需切换地图:点击带黑十字的绿色按钮放大地图;点击带横线的绿色按钮缩小地图;或者点击绿色箭头查看邻近地区的地图。


METAR-TAF: